createdAt,value
2022-10-01T00:02:07.269Z,101339.13
2022-10-01T00:04:38.012Z,101342.69
2022-10-01T00:07:10.403Z,101339.38
2022-10-01T00:09:38.630Z,101349.19
2022-10-01T00:12:06.801Z,101346.72
2022-10-01T00:14:34.641Z,101344.94
2022-10-01T00:17:02.396Z,101342.66
2022-10-01T00:19:30.129Z,101342.00
2022-10-01T00:21:57.831Z,101340.88
2022-10-01T00:24:25.393Z,101344.69
2022-10-01T00:26:53.231Z,101336.88
2022-10-01T00:29:20.736Z,101340.63
2022-10-01T00:31:48.366Z,101337.81
2022-10-01T00:34:16.184Z,101339.41
2022-10-01T00:36:43.876Z,101339.16
2022-10-01T00:39:12.276Z,101334.75
2022-10-01T00:41:40.269Z,101342.16
2022-10-01T00:44:34.393Z,101337.06
2022-10-01T00:47:13.999Z,101339.78
2022-10-01T00:49:43.829Z,101330.44
2022-10-01T00:52:18.225Z,101331.28
2022-10-01T00:54:52.942Z,101336.63
2022-10-01T00:57:24.274Z,101331.53
2022-10-01T00:59:55.144Z,101336.13
2022-10-01T01:02:22.886Z,101338.88
2022-10-01T01:04:50.407Z,101342.28
2022-10-01T01:07:18.621Z,101351.06
2022-10-01T01:09:50.001Z,101359.22
2022-10-01T01:12:26.663Z,101354.81
2022-10-01T01:15:21.905Z,101352.34
2022-10-01T01:18:09.691Z,101359.69
2022-10-01T01:21:02.733Z,101351.66
2022-10-01T01:24:12.163Z,101353.91
2022-10-01T01:26:41.175Z,101355.84
2022-10-01T01:29:34.691Z,101354.53
2022-10-01T01:32:12.694Z,101344.84
2022-10-01T01:34:46.649Z,101346.63
2022-10-01T01:37:18.026Z,101339.50
2022-10-01T01:39:50.902Z,101339.16
2022-10-01T01:42:24.154Z,101340.03
2022-10-01T01:44:58.345Z,101340.03
2022-10-01T01:47:33.005Z,101341.88
2022-10-01T01:50:03.011Z,101337.69
2022-10-01T01:52:30.747Z,101343.16
2022-10-01T01:54:58.609Z,101341.19
2022-10-01T01:57:27.383Z,101342.75
2022-10-01T01:59:55.975Z,101346.41
2022-10-01T02:02:30.086Z,101343.66
2022-10-01T02:05:02.222Z,101342.41
2022-10-01T02:07:32.363Z,101332.25
2022-10-01T02:10:38.296Z,101335.00
2022-10-01T02:13:38.317Z,101336.63
2022-10-01T02:16:18.974Z,101334.66
2022-10-01T02:19:05.608Z,101339.41
2022-10-01T02:21:37.150Z,101332.25
2022-10-01T02:24:27.942Z,101325.28
2022-10-01T02:26:57.410Z,101323.66
2022-10-01T02:29:25.044Z,101326.66
2022-10-01T02:31:55.819Z,101328.09
2022-10-01T02:34:29.052Z,101329.28
2022-10-01T02:37:00.193Z,101339.75
2022-10-01T02:39:31.048Z,101332.00
2022-10-01T02:42:00.827Z,101327.75
2022-10-01T02:44:40.130Z,101323.50
2022-10-01T02:47:20.597Z,101326.47
2022-10-01T02:49:49.992Z,101331.13
2022-10-01T02:52:17.441Z,101328.91
2022-10-01T02:54:58.755Z,101325.25
2022-10-01T02:57:27.677Z,101324.75
2022-10-01T02:59:59.262Z,101332.72
2022-10-01T03:02:29.024Z,101316.91
2022-10-01T03:04:57.630Z,101327.53
2022-10-01T03:07:26.973Z,101319.00
2022-10-01T03:09:54.735Z,101315.38
2022-10-01T03:12:23.376Z,101324.16
2022-10-01T03:14:51.230Z,101322.28
2022-10-01T03:17:18.774Z,101323.28
2022-10-01T03:19:46.254Z,101312.81
2022-10-01T03:22:18.214Z,101315.63
2022-10-01T03:24:45.809Z,101320.50
2022-10-01T03:27:13.362Z,101317.41
2022-10-01T03:29:40.961Z,101321.13
2022-10-01T03:32:08.740Z,101329.88
2022-10-01T03:34:36.433Z,101333.69
2022-10-01T03:37:04.454Z,101333.19
2022-10-01T03:39:32.003Z,101327.91
2022-10-01T03:41:59.993Z,101328.75
2022-10-01T03:44:30.620Z,101331.22
2022-10-01T03:46:58.191Z,101330.38
2022-10-01T03:49:25.702Z,101331.22
2022-10-01T03:51:53.209Z,101329.84
2022-10-01T03:54:21.066Z,101333.25
2022-10-01T03:56:49.060Z,101331.72
2022-10-01T03:59:16.644Z,101333.34
2022-10-01T04:01:44.227Z,101334.09
2022-10-01T04:04:11.925Z,101335.13
2022-10-01T04:06:39.490Z,101328.63
2022-10-01T04:09:09.664Z,101333.03
2022-10-01T04:11:37.802Z,101334.91
2022-10-01T04:14:05.990Z,101328.72
2022-10-01T04:16:36.351Z,101324.91
2022-10-01T04:19:04.737Z,101324.28
2022-10-01T04:21:32.681Z,101325.44
2022-10-01T04:24:01.183Z,101322.59
2022-10-01T04:26:28.671Z,101320.72
2022-10-01T04:28:56.293Z,101319.97
2022-10-01T04:31:27.266Z,101327.59
2022-10-01T04:33:57.475Z,101316.38
2022-10-01T04:36:25.889Z,101325.06
2022-10-01T04:38:59.358Z,101327.84
2022-10-01T04:41:31.304Z,101319.53
2022-10-01T04:44:00.103Z,101317.47
2022-10-01T04:46:29.885Z,101317.16
2022-10-01T04:48:57.798Z,101317.66
2022-10-01T04:51:25.515Z,101316.38
2022-10-01T04:53:53.052Z,101313.66
2022-10-01T04:56:20.868Z,101313.50
2022-10-01T04:58:49.206Z,101310.81
2022-10-01T05:01:16.907Z,101313.66
2022-10-01T05:03:44.586Z,101309.41
2022-10-01T05:06:12.018Z,101313.34
2022-10-01T05:08:39.501Z,101308.22
2022-10-01T05:11:07.168Z,101308.06
2022-10-01T05:13:34.902Z,101304.59
2022-10-01T05:16:03.886Z,101303.59
2022-10-01T05:18:32.503Z,101309.53
2022-10-01T05:21:04.895Z,101308.53
2022-10-01T05:23:33.312Z,101312.25
2022-10-01T05:26:01.123Z,101309.41
2022-10-01T05:28:29.128Z,101296.13
2022-10-01T05:31:00.595Z,101305.72
2022-10-01T05:33:29.962Z,101304.94
2022-10-01T05:35:58.955Z,101308.09
2022-10-01T05:38:26.502Z,101300.78
2022-10-01T05:40:54.141Z,101301.56
2022-10-01T05:43:21.996Z,101296.22
2022-10-01T05:45:51.317Z,101304.78
2022-10-01T05:48:19.178Z,101309.41
2022-10-01T05:50:47.192Z,101304.66
2022-10-01T05:53:15.800Z,101305.31
2022-10-01T05:55:43.306Z,101303.47
2022-10-01T05:58:13.544Z,101305.59
2022-10-01T06:00:43.054Z,101297.97
2022-10-01T06:03:15.352Z,101297.22
2022-10-01T06:05:44.756Z,101296.69
2022-10-01T06:08:12.780Z,101293.50
2022-10-01T06:10:41.206Z,101285.66
2022-10-01T06:13:08.742Z,101292.78
2022-10-01T06:15:38.870Z,101290.28
2022-10-01T06:18:10.740Z,101289.28
2022-10-01T06:20:39.695Z,101289.75
2022-10-01T06:23:11.355Z,101288.97
2022-10-01T06:25:41.604Z,101286.31
2022-10-01T06:28:11.682Z,101283.53
2022-10-01T06:30:40.228Z,101281.53
2022-10-01T06:33:10.634Z,101282.13
2022-10-01T06:35:43.754Z,101278.66
2022-10-01T06:38:11.955Z,101280.09
2022-10-01T06:40:39.968Z,101273.13
2022-10-01T06:43:08.613Z,101277.28
2022-10-01T06:45:40.735Z,101278.25
2022-10-01T06:48:14.643Z,101278.88
2022-10-01T06:50:44.289Z,101275.34
2022-10-01T06:53:14.731Z,101282.63
2022-10-01T06:55:42.502Z,101276.16
2022-10-01T06:58:14.654Z,101269.97
2022-10-01T07:00:43.947Z,101271.22
2022-10-01T07:03:18.386Z,101267.97
2022-10-01T07:05:46.486Z,101266.34
2022-10-01T07:08:14.737Z,101261.91
2022-10-01T07:10:44.228Z,101251.44
2022-10-01T07:13:17.689Z,101259.34
2022-10-01T07:15:46.072Z,101253.31
2022-10-01T07:18:14.558Z,101254.84
2022-10-01T07:20:42.293Z,101248.59
2022-10-01T07:23:15.058Z,101243.56
2022-10-01T07:25:43.562Z,101243.38
2022-10-01T07:28:18.457Z,101243.94
2022-10-01T07:30:56.719Z,101238.94
2022-10-01T07:33:24.524Z,101245.72
2022-10-01T07:35:52.151Z,101243.69
2022-10-01T07:38:19.634Z,101245.22
2022-10-01T07:40:54.725Z,101241.66
2022-10-01T07:43:22.854Z,101230.72
2022-10-01T07:45:52.519Z,101229.75
2022-10-01T07:48:20.554Z,101236.44
2022-10-01T07:50:48.339Z,101240.25
2022-10-01T07:53:16.858Z,101227.22
2022-10-01T07:55:44.984Z,101237.75
2022-10-01T07:58:12.903Z,101229.41
2022-10-01T08:00:40.669Z,101223.72
2022-10-01T08:03:12.151Z,101225.69
2022-10-01T08:05:42.454Z,101226.69
2022-10-01T08:08:10.401Z,101221.34
2022-10-01T08:10:38.808Z,101230.34
2022-10-01T08:13:14.623Z,101225.53
2022-10-01T08:15:45.125Z,101212.34
2022-10-01T08:18:13.729Z,101223.59
2022-10-01T08:20:41.448Z,101221.03
2022-10-01T08:23:10.942Z,101221.16
2022-10-01T08:25:39.889Z,101217.59
2022-10-01T08:28:08.686Z,101212.81
2022-10-01T08:30:39.432Z,101215.16
2022-10-01T08:33:07.707Z,101219.81
2022-10-01T08:35:38.255Z,101213.19
2022-10-01T08:38:06.901Z,101217.56
2022-10-01T08:40:39.052Z,101215.66
2022-10-01T08:43:11.538Z,101215.16
2022-10-01T08:45:44.865Z,101211.19
2022-10-01T08:48:16.724Z,101209.97
2022-10-01T08:50:53.052Z,101213.09
2022-10-01T08:53:41.938Z,101210.94
2022-10-01T08:56:24.155Z,101210.81
2022-10-01T08:59:00.529Z,101204.63
2022-10-01T09:01:29.795Z,101213.72
2022-10-01T09:03:59.478Z,101202.94
2022-10-01T09:06:29.144Z,101205.47
2022-10-01T09:09:15.442Z,101202.06
2022-10-01T09:11:48.903Z,101204.84
2022-10-01T09:14:45.708Z,101204.84
2022-10-01T09:17:31.222Z,101206.56
2022-10-01T09:20:29.260Z,101206.31
2022-10-01T09:23:15.437Z,101204.50
2022-10-01T09:25:45.964Z,101200.03
2022-10-01T09:28:31.757Z,101203.53
2022-10-01T09:31:18.697Z,101200.78
2022-10-01T09:34:12.558Z,101192.41
2022-10-01T09:37:05.620Z,101193.16
2022-10-01T09:39:42.764Z,101195.69
2022-10-01T09:42:10.318Z,101188.69
2022-10-01T09:44:37.891Z,101183.84
2022-10-01T09:47:18.457Z,101183.59
2022-10-01T09:49:49.404Z,101184.56
2022-10-01T09:52:27.189Z,101177.44
2022-10-01T09:55:22.412Z,101176.47
2022-10-01T09:58:12.855Z,101169.97
2022-10-01T10:00:42.051Z,101175.03
2022-10-01T10:03:10.132Z,101165.97
2022-10-01T10:05:43.730Z,101163.31
2022-10-01T10:08:14.133Z,101154.38
2022-10-01T10:10:51.860Z,101157.63
2022-10-01T10:13:48.959Z,101154.47
2022-10-01T10:16:25.029Z,101151.06
2022-10-01T10:19:00.061Z,101144.94
2022-10-01T10:21:30.665Z,101136.56
2022-10-01T10:24:04.306Z,101143.22
2022-10-01T10:26:35.565Z,101126.03
2022-10-01T10:29:05.554Z,101127.75
2022-10-01T10:31:45.705Z,101128.59
2022-10-01T10:34:26.204Z,101123.03
2022-10-01T10:36:59.120Z,101129.91
2022-10-01T10:39:33.551Z,101121.06
2022-10-01T10:42:04.093Z,101122.78
2022-10-01T10:44:36.330Z,101120.56
2022-10-01T10:47:09.244Z,101108.84
2022-10-01T10:49:59.393Z,101107.00
2022-10-01T10:52:32.360Z,101105.09
2022-10-01T10:55:02.037Z,101108.59
2022-10-01T10:57:32.411Z,101097.22
2022-10-01T11:00:00.044Z,101094.88
2022-10-01T11:02:30.586Z,101084.81
2022-10-01T11:05:16.347Z,101087.09
2022-10-01T11:07:45.948Z,101083.84
2022-10-01T11:10:31.553Z,101087.22
2022-10-01T11:13:14.852Z,101076.44
2022-10-01T11:15:55.900Z,101073.06
2022-10-01T11:18:34.001Z,101073.06
2022-10-01T11:21:30.402Z,101070.03
2022-10-01T11:24:06.736Z,101067.56
2022-10-01T11:26:40.905Z,101060.94
2022-10-01T11:29:15.165Z,101055.03
2022-10-01T11:32:17.509Z,101051.84
2022-10-01T11:35:09.975Z,101060.31
2022-10-01T11:38:01.885Z,101052.88
2022-10-01T11:40:35.949Z,101045.03
2022-10-01T11:43:23.785Z,101045.16
2022-10-01T11:45:56.501Z,101040.81
2022-10-01T11:48:33.989Z,101039.81
2022-10-01T11:51:07.794Z,101037.56
2022-10-01T11:53:59.027Z,101038.00
2022-10-01T11:56:53.522Z,101025.69
2022-10-01T11:59:37.149Z,101035.94
2022-10-01T12:02:28.340Z,101032.63
2022-10-01T12:05:01.193Z,101026.81
2022-10-01T12:07:47.729Z,101035.66
2022-10-01T12:10:24.157Z,101031.91
2022-10-01T12:13:00.346Z,101023.34
2022-10-01T12:15:38.769Z,101022.94
2022-10-01T12:18:13.201Z,101027.56
2022-10-01T12:20:44.514Z,101026.84
2022-10-01T12:23:18.028Z,101017.56
2022-10-01T12:26:02.742Z,101021.72
2022-10-01T12:28:34.450Z,101017.97
2022-10-01T12:31:28.198Z,101015.41
2022-10-01T12:34:17.273Z,101012.44
2022-10-01T12:36:54.429Z,101026.13
2022-10-01T12:39:34.395Z,101015.97
2022-10-01T12:42:13.718Z,101014.31
2022-10-01T12:45:02.545Z,101018.91
2022-10-01T12:47:39.198Z,101012.34
2022-10-01T12:50:26.809Z,101013.91
2022-10-01T12:53:06.840Z,101008.72
2022-10-01T12:56:07.261Z,101004.19
2022-10-01T12:58:59.621Z,101011.31
2022-10-01T13:01:29.716Z,101014.56
2022-10-01T13:04:18.999Z,101015.03
2022-10-01T13:06:59.334Z,101001.06
2022-10-01T13:10:00.440Z,101001.66
2022-10-01T13:12:45.438Z,101008.47
2022-10-01T13:15:24.018Z,101006.22
2022-10-01T13:18:10.408Z,101006.31
2022-10-01T13:21:01.825Z,100997.97
2022-10-01T13:23:33.936Z,100998.34
2022-10-01T13:26:18.545Z,100998.34
2022-10-01T13:28:58.142Z,100993.28
2022-10-01T13:31:51.620Z,100989.75
2022-10-01T13:34:43.039Z,100982.28
2022-10-01T13:37:30.970Z,100989.44
2022-10-01T13:39:59.694Z,100986.13
2022-10-01T13:42:42.094Z,100992.81
2022-10-01T13:45:27.216Z,100987.63
2022-10-01T13:48:11.442Z,100983.41
2022-10-01T13:50:40.824Z,100984.16
2022-10-01T13:53:17.448Z,100984.59
2022-10-01T13:55:50.448Z,100976.28
2022-10-01T13:58:30.824Z,100983.94
2022-10-01T14:01:05.362Z,100989.25
2022-10-01T14:03:42.206Z,100983.47
2022-10-01T14:06:32.832Z,100982.06
2022-10-01T14:09:35.568Z,100982.53
2022-10-01T14:12:32.852Z,100987.84
2022-10-01T14:15:30.898Z,100982.53
2022-10-01T14:18:03.207Z,100981.25
2022-10-01T14:20:45.648Z,100970.50
2022-10-01T14:23:16.566Z,100974.09
2022-10-01T14:25:56.042Z,100973.25
2022-10-01T14:28:46.987Z,100968.31
2022-10-01T14:31:32.913Z,100968.47
2022-10-01T14:34:12.598Z,100965.31
2022-10-01T14:36:47.393Z,100961.25
2022-10-01T14:39:23.189Z,100964.75
2022-10-01T14:41:52.738Z,100967.28
2022-10-01T14:44:24.227Z,100968.97
2022-10-01T14:46:53.725Z,100964.34
2022-10-01T14:49:23.741Z,100969.09
2022-10-01T14:52:00.517Z,100965.97
2022-10-01T14:54:30.211Z,100960.66
2022-10-01T14:56:57.823Z,100963.94
2022-10-01T14:59:36.762Z,100968.41
2022-10-01T15:02:16.173Z,100959.72
2022-10-01T15:04:52.551Z,100959.16
2022-10-01T15:07:20.435Z,100957.25
2022-10-01T15:09:49.343Z,100952.09
2022-10-01T15:12:20.433Z,100963.53
2022-10-01T15:14:53.763Z,100955.94
2022-10-01T15:17:24.886Z,100955.22
2022-10-01T15:19:59.329Z,100949.69
2022-10-01T15:22:29.513Z,100953.66
2022-10-01T15:25:01.387Z,100956.59
2022-10-01T15:27:29.115Z,100956.59
2022-10-01T15:29:58.889Z,100956.00
2022-10-01T15:32:28.330Z,100955.47
2022-10-01T15:35:02.087Z,100951.91
2022-10-01T15:37:34.570Z,100956.94
2022-10-01T15:40:20.085Z,100953.69
2022-10-01T15:43:12.466Z,100954.91
2022-10-01T15:45:40.731Z,100951.50
2022-10-01T15:48:28.623Z,100964.69
2022-10-01T15:51:05.005Z,100953.06
2022-10-01T15:53:34.731Z,100951.06
2022-10-01T15:56:10.801Z,100952.50
2022-10-01T15:58:44.701Z,100947.28
2022-10-01T16:01:21.463Z,100957.47
2022-10-01T16:04:09.409Z,100948.88
2022-10-01T16:06:39.376Z,100951.41
2022-10-01T16:09:28.570Z,100951.91
2022-10-01T16:12:02.223Z,100942.47
2022-10-01T16:14:37.186Z,100945.38
2022-10-01T16:17:16.558Z,100947.78
2022-10-01T16:19:56.927Z,100936.06
2022-10-01T16:22:30.142Z,100943.06
2022-10-01T16:25:00.359Z,100938.97
2022-10-01T16:27:32.913Z,100941.88
2022-10-01T16:30:22.408Z,100944.19
2022-10-01T16:32:50.709Z,100941.03
2022-10-01T16:35:18.604Z,100937.91
2022-10-01T16:38:47.307Z,100935.69
2022-10-01T16:41:26.153Z,100934.75
2022-10-01T16:43:57.630Z,100930.41
2022-10-01T16:46:26.408Z,100932.84
2022-10-01T16:48:54.795Z,100940.91
2022-10-01T16:51:22.479Z,100936.56
2022-10-01T16:53:51.294Z,100929.56
2022-10-01T16:56:21.408Z,100938.50
2022-10-01T16:58:52.837Z,100930.63
2022-10-01T17:01:20.412Z,100933.44
2022-10-01T17:03:47.971Z,100930.88
2022-10-01T17:06:15.506Z,100933.28
2022-10-01T17:08:42.946Z,100929.22
2022-10-01T17:11:12.757Z,100925.47
2022-10-01T17:13:40.690Z,100922.56
2022-10-01T17:16:09.034Z,100927.75
2022-10-01T17:18:36.736Z,100928.47
2022-10-01T17:21:05.600Z,100929.06
2022-10-01T17:23:35.461Z,100927.88
2022-10-01T17:26:06.250Z,100926.69
2022-10-01T17:28:34.230Z,100929.19
2022-10-01T17:31:06.659Z,100925.59
2022-10-01T17:33:34.581Z,100928.25
2022-10-01T17:36:06.940Z,100917.63
2022-10-01T17:38:35.407Z,100924.25
2022-10-01T17:41:03.585Z,100918.81
2022-10-01T17:43:31.203Z,100922.31
2022-10-01T17:46:00.675Z,100921.84
2022-10-01T17:48:29.157Z,100919.41
2022-10-01T17:51:01.931Z,100923.91
2022-10-01T17:53:35.902Z,100921.34
2022-10-01T17:56:12.825Z,100921.72
2022-10-01T17:58:44.962Z,100919.41
2022-10-01T18:01:17.193Z,100916.03
2022-10-01T18:03:44.713Z,100915.09
2022-10-01T18:06:14.323Z,100916.19
2022-10-01T18:08:54.731Z,100911.81
2022-10-01T18:11:24.355Z,100916.19
2022-10-01T18:13:52.503Z,100920.03
2022-10-01T18:16:20.198Z,100914.13
2022-10-01T18:19:51.932Z,100910.50
2022-10-01T18:21:36.250Z,100907.63
2022-10-01T18:24:05.021Z,100905.91
2022-10-01T18:26:33.786Z,100913.63
2022-10-01T18:29:02.239Z,100898.19
2022-10-01T18:31:40.653Z,100901.09
2022-10-01T18:34:38.673Z,100899.88
2022-10-01T18:37:26.454Z,100903.50
2022-10-01T18:40:16.157Z,100907.59
2022-10-01T18:42:46.278Z,100902.78
2022-10-01T18:45:17.812Z,100902.66
2022-10-01T18:47:51.260Z,100910.47
2022-10-01T18:50:43.409Z,100907.22
2022-10-01T18:53:51.707Z,100915.78
2022-10-01T18:56:34.760Z,100926.75
2022-10-01T18:59:27.152Z,100921.19
2022-10-01T19:02:21.943Z,100922.75
2022-10-01T19:05:15.411Z,100918.31
2022-10-01T19:07:55.916Z,100923.22
2022-10-01T19:10:50.442Z,100919.50
2022-10-01T19:13:36.046Z,100917.06
2022-10-01T19:16:03.620Z,100918.97
2022-10-01T19:18:56.726Z,100912.34
2022-10-01T19:21:27.014Z,100911.63
2022-10-01T19:24:12.154Z,100911.59
2022-10-01T19:26:54.895Z,100910.97
2022-10-01T19:29:44.440Z,100911.81
2022-10-01T19:32:47.090Z,100903.16
2022-10-01T19:35:18.602Z,100905.81
2022-10-01T19:37:50.844Z,100904.56
2022-10-01T19:40:27.686Z,100903.09
2022-10-01T19:43:38.054Z,100907.69
2022-10-01T19:46:05.735Z,100910.19
2022-10-01T19:48:46.414Z,100911.91
2022-10-01T19:51:18.361Z,100910.56
2022-10-01T19:53:48.635Z,100909.94
2022-10-01T19:56:22.974Z,100912.59
2022-10-01T19:58:50.873Z,100908.78
2022-10-01T20:01:24.825Z,100909.19
2022-10-01T20:04:02.213Z,100908.03
2022-10-01T20:06:34.128Z,100912.25
2022-10-01T20:09:31.298Z,100910.81
2022-10-01T20:12:08.481Z,100905.81
2022-10-01T20:15:08.978Z,100898.69
2022-10-01T20:17:58.394Z,100901.22
2022-10-01T20:20:32.189Z,100895.19
2022-10-01T20:23:07.473Z,100896.88
2022-10-01T20:25:37.950Z,100889.66
2022-10-01T20:29:01.569Z,100891.31
2022-10-01T20:31:42.855Z,100892.53
2022-10-01T20:34:16.054Z,100890.75
2022-10-01T20:37:08.638Z,100890.75
2022-10-01T20:39:41.499Z,100895.53
2022-10-01T20:42:18.167Z,100890.94
2022-10-01T20:44:46.317Z,100891.19
2022-10-01T20:47:23.649Z,100890.13
2022-10-01T20:50:14.760Z,100895.91
2022-10-01T20:53:03.896Z,100889.47
2022-10-01T20:55:40.584Z,100883.81
2022-10-01T20:58:33.185Z,100890.22
2022-10-01T21:01:15.815Z,100895.75
2022-10-01T21:03:47.843Z,100896.63
2022-10-01T21:06:25.635Z,100886.72
2022-10-01T21:09:11.479Z,100890.13
2022-10-01T21:11:47.219Z,100881.44
2022-10-01T21:14:18.598Z,100884.53
2022-10-01T21:17:20.195Z,100884.28
2022-10-01T21:20:06.083Z,100882.38
2022-10-01T21:22:57.678Z,100885.00
2022-10-01T21:25:49.122Z,100886.31
2022-10-01T21:29:04.189Z,100884.69
2022-10-01T21:31:55.849Z,100882.97
2022-10-01T21:34:52.615Z,100883.31
2022-10-01T21:37:42.962Z,100886.56
2022-10-01T21:40:28.264Z,100885.50
2022-10-01T21:43:01.418Z,100874.78
2022-10-01T21:46:03.907Z,100877.69
2022-10-01T21:48:31.452Z,100878.25
2022-10-01T21:51:26.781Z,100868.69
2022-10-01T21:54:11.902Z,100869.34
2022-10-01T21:56:45.145Z,100859.69
2022-10-01T21:59:49.646Z,100869.66
2022-10-01T22:02:39.329Z,100867.47
2022-10-01T22:05:22.715Z,100863.84
2022-10-01T22:07:55.497Z,100865.13
2022-10-01T22:10:28.510Z,100860.97
2022-10-01T22:13:00.507Z,100862.78
2022-10-01T22:15:30.305Z,100854.97
2022-10-01T22:18:02.161Z,100865.56
2022-10-01T22:20:37.257Z,100854.97
2022-10-01T22:23:09.515Z,100858.03
2022-10-01T22:25:44.719Z,100859.34
2022-10-01T22:28:21.029Z,100857.22
2022-10-01T22:30:51.457Z,100858.16
2022-10-01T22:33:24.728Z,100859.03
2022-10-01T22:36:02.358Z,100857.88
2022-10-01T22:38:56.056Z,100855.75
2022-10-01T22:41:36.077Z,100862.38
2022-10-01T22:44:13.967Z,100861.66
2022-10-01T22:47:16.349Z,100854.66
2022-10-01T22:50:22.686Z,100850.69
2022-10-01T22:52:58.843Z,100849.09
2022-10-01T22:55:47.902Z,100851.06
2022-10-01T22:58:33.625Z,100845.88
2022-10-01T23:01:09.858Z,100844.31
2022-10-01T23:03:37.610Z,100847.06
2022-10-01T23:06:11.095Z,100850.44
2022-10-01T23:08:57.067Z,100847.91
2022-10-01T23:11:33.893Z,100842.56
2022-10-01T23:14:55.558Z,100836.81
2022-10-01T23:17:28.087Z,100839.69
2022-10-01T23:20:21.586Z,100837.38
2022-10-01T23:23:24.439Z,100842.50
2022-10-01T23:26:00.673Z,100839.63
2022-10-01T23:28:40.133Z,100838.31
2022-10-01T23:31:32.725Z,100832.53
2022-10-01T23:34:37.266Z,100834.25
2022-10-01T23:37:24.232Z,100836.44
2022-10-01T23:39:54.742Z,100827.06
2022-10-01T23:43:00.464Z,100836.19
2022-10-01T23:45:37.677Z,100827.25
2022-10-01T23:48:21.196Z,100825.44
2022-10-01T23:50:55.218Z,100826.00
2022-10-01T23:53:32.516Z,100823.03
2022-10-01T23:56:24.690Z,100820.47
2022-10-01T23:59:25.137Z,100812.91
